Hikone, Japan

5:01 PM JST on October 31, 2014 (GMT +0900)
Nagoya / Chubu | Change Station
CLOSE
Current Station
Airport
Location: Nagoya / Chubu,
Elevation: 16 ft
Nearby Weather Stations

Elev 16 ft 34.86 °N, 136.81 °E | Updated 31 minutes ago

Light Rain Showers
Light Showers Rain
66 °F
Feels Like 66 °F
N
12
Wind Variable Wind from ESE

Today
High -- | Low -- °F
--% Chance of Precip.
Yesterday
High -- | Low -- °F
Precip. -- in
6:14 AM 5:01 PM
First Quarter, 52% visible
Pressure 30.15 in
Visibility 6.2 miles
Clouds Few 1000 ft
Scattered Clouds 3000 ft
Mostly Cloudy 8000 ft
Dew Point 64 °F
Humidity 94%
Rainfall 0.00 in
Snow Depth Not available.
UV 0 out of 12
Pollen Not available.
Air Quality Not available.
Flu Activity Not available.
METAR RJGG 310730Z 11010KT 9999 -SHRA FEW010 SCT030 BKN080 19/18 Q1021 TEMPO 4000 -SHRA BR

More Conditions Fewer Conditions

Pressure 30.15 in
Visibility 6.2 miles
Clouds Few 1000 ft
Scattered Clouds 3000 ft
Mostly Cloudy 8000 ft
Dew Point 64 °F
Humidity 94%
Rainfall 0.00 in
Snow Depth Not available.
UV 0 out of 12
Pollen Not available.
Air Quality Not available.
Flu Activity Not available.
METAR RJGG 310730Z 11010KT 9999 -SHRA FEW010 SCT030 BKN080 19/18 Q1021 TEMPO 4000 -SHRA BR

More Conditions Fewer Conditions

10-Day Weather Forecast

Almanac

Astronomy

Oct. 31, 2014 Rise Set
Actual Time
Civil Twilight
Nautical Twilight
Astronomical Twilight
Moon
Length of Visible Light
Length of Day
Tomorrow will be .
, % of the Moon is Illuminated

Today's Extremes

Country Highs Country Lows

Community

WunderPhotos

Upload Photos

1,766,573 photos uploaded!

WunderBlogs® & News

Nearby

Air Quality

  Air Quality AQ Index Pollutant
Not available.

Snow Depth

Station Depth Elevation

Earthquake Activity

City Distance Mag. Time & Date
Minimum magnitude displayed is 2.5.

Coastal Water Temperatures

Place Temperature

Nearby Weather Stations